createdAt,value
2017-08-02T00:01:37.738Z,7.53
2017-08-02T00:04:05.014Z,8.00
2017-08-02T00:06:31.864Z,7.30
2017-08-02T00:08:59.149Z,7.93
2017-08-02T00:11:25.993Z,6.70
2017-08-02T00:13:52.852Z,7.17
2017-08-02T00:16:20.126Z,6.17
2017-08-02T00:18:47.741Z,9.03
2017-08-02T00:21:14.614Z,6.90
2017-08-02T00:23:42.244Z,6.80
2017-08-02T00:26:09.134Z,6.57
2017-08-02T00:28:36.961Z,6.93
2017-08-02T00:31:03.854Z,10.43
2017-08-02T00:33:30.928Z,7.73
2017-08-02T00:35:57.775Z,7.03
2017-08-02T00:38:24.626Z,6.87
2017-08-02T00:40:51.879Z,7.80
2017-08-02T00:43:19.122Z,10.90
2017-08-02T00:45:45.981Z,6.90
2017-08-02T00:48:12.869Z,7.20
2017-08-02T00:50:40.125Z,7.60
2017-08-02T00:53:07.023Z,8.73
2017-08-02T00:55:33.876Z,7.50
2017-08-02T00:58:01.149Z,9.03
2017-08-02T01:00:28.003Z,7.90
2017-08-02T01:02:54.885Z,9.33
2017-08-02T01:05:21.730Z,8.40
2017-08-02T01:07:48.981Z,7.80
2017-08-02T01:10:15.825Z,8.10
2017-08-02T01:12:43.083Z,9.27
2017-08-02T01:15:09.934Z,7.57
2017-08-02T01:17:36.785Z,8.17
2017-08-02T01:20:04.378Z,7.67
2017-08-02T01:22:31.621Z,7.90
2017-08-02T01:24:58.898Z,7.40
2017-08-02T01:30:04.946Z,7.97
2017-08-02T01:32:31.789Z,7.70
2017-08-02T01:34:58.926Z,7.80
2017-08-02T01:37:25.786Z,8.97
2017-08-02T01:39:52.638Z,8.40
2017-08-02T01:42:19.892Z,8.77
2017-08-02T01:44:46.756Z,7.67
2017-08-02T01:47:13.605Z,8.07
2017-08-02T01:49:40.461Z,7.90
2017-08-02T01:52:07.744Z,7.90
2017-08-02T01:54:35.003Z,8.57
2017-08-02T01:57:01.890Z,9.33
2017-08-02T01:59:28.745Z,10.80
2017-08-02T02:01:55.627Z,10.90
2017-08-02T02:04:23.249Z,9.63
2017-08-02T02:06:50.530Z,8.90
2017-08-02T02:09:17.386Z,9.57
2017-08-02T02:11:45.006Z,9.23
2017-08-02T02:14:11.874Z,10.70
2017-08-02T02:16:39.122Z,9.70
2017-08-02T02:19:05.986Z,10.93
2017-08-02T02:21:33.021Z,9.87
2017-08-02T02:24:00.297Z,8.67
2017-08-02T02:26:27.545Z,10.80
2017-08-02T02:28:54.820Z,9.30
2017-08-02T02:31:22.829Z,8.50
2017-08-02T02:33:51.409Z,10.20
2017-08-02T02:36:18.274Z,8.77
2017-08-02T02:38:45.129Z,11.03
2017-08-02T02:41:11.983Z,10.80
2017-08-02T02:43:40.341Z,9.50
2017-08-02T02:46:07.198Z,12.73
2017-08-02T02:48:34.050Z,9.50
2017-08-02T02:51:01.454Z,11.00
2017-08-02T02:53:28.697Z,8.27
2017-08-02T02:55:55.578Z,10.00
2017-08-02T02:58:22.826Z,11.00
2017-08-02T03:00:49.677Z,10.43
2017-08-02T03:03:16.539Z,9.40
2017-08-02T03:05:43.434Z,9.33
2017-08-02T03:08:10.287Z,10.63
2017-08-02T03:10:37.135Z,10.60
2017-08-02T03:13:03.989Z,11.23
2017-08-02T03:15:30.834Z,9.80
2017-08-02T03:17:57.714Z,12.10
2017-08-02T03:20:24.542Z,10.70
2017-08-02T03:22:52.205Z,10.30
2017-08-02T03:25:19.826Z,10.70
2017-08-02T03:27:48.993Z,14.00
2017-08-02T03:30:16.258Z,9.17
2017-08-02T03:32:43.526Z,11.03
2017-08-02T03:35:11.169Z,11.83
2017-08-02T03:37:38.035Z,11.00
2017-08-02T03:40:05.691Z,10.77
2017-08-02T03:42:32.954Z,14.03
2017-08-02T03:45:00.247Z,12.13
2017-08-02T03:47:28.350Z,11.93
2017-08-02T03:49:55.203Z,11.40
2017-08-02T03:52:22.058Z,10.37
2017-08-02T03:54:50.050Z,12.53
2017-08-02T03:59:56.162Z,13.13
2017-08-02T04:02:24.177Z,14.00
2017-08-02T04:04:51.030Z,13.60
2017-08-02T04:07:18.311Z,11.80
2017-08-02T04:09:45.553Z,13.77
2017-08-02T04:12:13.183Z,13.27
2017-08-02T04:14:40.053Z,12.27
2017-08-02T04:17:08.082Z,13.70
2017-08-02T04:19:34.935Z,12.57
2017-08-02T04:22:02.206Z,12.53
2017-08-02T04:24:29.069Z,14.20
2017-08-02T04:29:34.650Z,14.50
2017-08-02T04:32:01.515Z,14.30
2017-08-02T04:34:28.398Z,12.20
2017-08-02T04:36:55.250Z,15.50
2017-08-02T04:39:22.130Z,12.70
2017-08-02T04:41:49.387Z,12.47
2017-08-02T04:44:16.282Z,11.80
2017-08-02T04:46:43.534Z,13.00
2017-08-02T04:49:10.388Z,13.90
2017-08-02T04:51:37.241Z,13.93
2017-08-02T04:54:04.088Z,12.47
2017-08-02T04:56:31.374Z,11.97
2017-08-02T04:58:58.221Z,12.17
2017-08-02T05:01:25.498Z,11.40
2017-08-02T05:03:52.389Z,13.97
2017-08-02T05:06:19.265Z,12.27
2017-08-02T05:08:46.115Z,12.80
2017-08-02T05:11:12.998Z,15.03
2017-08-02T05:13:40.880Z,13.50
2017-08-02T05:16:07.766Z,13.80
2017-08-02T05:18:34.614Z,13.83
2017-08-02T05:21:01.462Z,16.17
2017-08-02T05:23:28.318Z,14.57
2017-08-02T05:25:56.710Z,14.93
2017-08-02T05:28:23.621Z,16.63
2017-08-02T05:30:51.609Z,16.40
2017-08-02T05:33:18.484Z,15.90
2017-08-02T05:35:45.746Z,15.57
2017-08-02T05:38:13.023Z,15.17
2017-08-02T05:40:39.877Z,14.80
2017-08-02T05:43:06.771Z,15.03
2017-08-02T05:45:33.626Z,15.63
2017-08-02T05:48:00.493Z,14.70
2017-08-02T05:50:27.885Z,16.57
2017-08-02T05:52:55.510Z,16.30
2017-08-02T05:55:22.409Z,15.10
2017-08-02T05:57:49.253Z,16.53
2017-08-02T06:00:16.134Z,17.33
2017-08-02T06:02:43.387Z,15.73
2017-08-02T06:05:10.667Z,14.10
2017-08-02T06:07:37.517Z,16.77
2017-08-02T06:10:04.404Z,16.30
2017-08-02T06:12:31.260Z,17.77
2017-08-02T06:14:58.118Z,16.23
2017-08-02T06:17:24.965Z,18.60
2017-08-02T06:19:51.825Z,15.87
2017-08-02T06:22:19.101Z,15.97
2017-08-02T06:24:45.961Z,18.33
2017-08-02T06:27:12.846Z,17.90
2017-08-02T06:29:39.700Z,17.97
2017-08-02T06:32:06.582Z,17.70
2017-08-02T06:34:33.853Z,17.70
2017-08-02T06:37:01.137Z,19.13
2017-08-02T06:39:27.998Z,17.00
2017-08-02T06:41:54.853Z,17.27
2017-08-02T06:44:22.099Z,16.70
2017-08-02T06:46:48.957Z,15.83
2017-08-02T06:49:15.808Z,18.27
2017-08-02T06:51:42.662Z,15.00
2017-08-02T06:54:09.537Z,16.60
2017-08-02T06:56:36.481Z,16.30
2017-08-02T06:59:03.366Z,16.90
2017-08-02T07:01:30.221Z,17.43
2017-08-02T07:03:57.099Z,15.00
2017-08-02T07:06:24.731Z,16.00
2017-08-02T07:08:51.630Z,16.10
2017-08-02T07:11:18.886Z,16.80
2017-08-02T07:13:45.737Z,16.07
2017-08-02T07:16:12.588Z,17.00
2017-08-02T07:18:39.442Z,15.20
2017-08-02T07:21:06.291Z,14.43
2017-08-02T07:23:33.141Z,15.77
2017-08-02T07:26:00.018Z,15.10
2017-08-02T07:28:27.274Z,14.37
2017-08-02T07:30:54.149Z,14.53
2017-08-02T07:33:21.392Z,15.07
2017-08-02T07:35:49.418Z,15.53
2017-08-02T07:38:16.582Z,13.43
2017-08-02T07:40:43.430Z,14.87
2017-08-02T07:43:10.284Z,12.03
2017-08-02T07:45:38.152Z,12.63
2017-08-02T07:48:05.005Z,12.20
2017-08-02T07:50:31.860Z,11.67
2017-08-02T07:52:59.889Z,11.07
2017-08-02T07:55:27.131Z,12.20
2017-08-02T07:57:54.013Z,10.70
2017-08-02T08:00:20.863Z,10.20
2017-08-02T08:02:47.753Z,9.47
2017-08-02T08:05:14.602Z,9.43
2017-08-02T08:07:41.855Z,10.77
2017-08-02T08:10:08.701Z,9.50
2017-08-02T08:12:35.556Z,10.10
2017-08-02T08:15:02.830Z,9.70
2017-08-02T08:17:29.699Z,9.53
2017-08-02T08:19:56.615Z,9.23
2017-08-02T08:22:23.472Z,9.70
2017-08-02T08:24:50.378Z,9.80
2017-08-02T08:27:17.229Z,8.60
2017-08-02T08:29:44.841Z,9.43
2017-08-02T08:32:11.685Z,9.60
2017-08-02T08:34:38.925Z,9.30
2017-08-02T08:37:05.821Z,8.17
2017-08-02T08:39:32.676Z,8.63
2017-08-02T08:41:59.557Z,8.00
2017-08-02T08:44:26.408Z,9.77
2017-08-02T08:46:53.294Z,8.17
2017-08-02T08:49:21.285Z,8.30
2017-08-02T08:51:48.532Z,7.23
2017-08-02T08:54:15.774Z,8.27
2017-08-02T08:56:43.017Z,7.77
2017-08-02T08:59:11.007Z,7.40
2017-08-02T09:01:37.853Z,7.80
2017-08-02T09:04:04.738Z,8.10
2017-08-02T09:06:31.589Z,8.33
2017-08-02T09:08:58.466Z,7.50
2017-08-02T09:11:25.710Z,7.73
2017-08-02T09:13:52.565Z,7.43
2017-08-02T09:16:19.815Z,9.13
2017-08-02T09:18:47.069Z,8.70
2017-08-02T09:21:13.947Z,8.10
2017-08-02T09:23:41.185Z,7.33
2017-08-02T09:26:08.833Z,7.13
2017-08-02T09:28:35.687Z,9.30
2017-08-02T09:31:02.937Z,7.30
2017-08-02T09:33:30.182Z,9.00
2017-08-02T09:35:57.794Z,7.17
2017-08-02T09:38:24.643Z,6.80
2017-08-02T09:40:52.276Z,7.30
2017-08-02T09:43:19.549Z,7.97
2017-08-02T09:45:46.396Z,7.60
2017-08-02T09:48:13.308Z,8.83
2017-08-02T09:50:40.922Z,7.27
2017-08-02T09:53:08.233Z,12.77
2017-08-02T09:55:35.485Z,8.17
2017-08-02T09:58:02.737Z,9.30
2017-08-02T10:00:29.985Z,6.80
2017-08-02T10:02:57.629Z,7.37
2017-08-02T10:05:24.517Z,6.90
2017-08-02T10:07:51.369Z,7.53
2017-08-02T10:10:18.638Z,6.17
2017-08-02T10:12:45.881Z,6.80
2017-08-02T10:15:12.948Z,6.40
2017-08-02T10:17:39.800Z,6.70
2017-08-02T10:20:06.684Z,6.83
2017-08-02T10:22:33.538Z,6.10
2017-08-02T10:25:01.170Z,6.80
2017-08-02T10:30:07.743Z,6.93
2017-08-02T10:32:34.602Z,6.27
2017-08-02T10:35:01.841Z,6.37
2017-08-02T10:37:28.719Z,7.10
2017-08-02T10:39:55.957Z,6.30
2017-08-02T10:42:23.228Z,8.67
2017-08-02T10:44:50.073Z,7.40
2017-08-02T10:47:17.349Z,7.03
2017-08-02T10:49:44.597Z,6.97
2017-08-02T10:52:11.874Z,7.27
2017-08-02T10:54:38.729Z,5.70
2017-08-02T10:57:05.710Z,6.00
2017-08-02T10:59:32.559Z,5.97
2017-08-02T11:01:59.433Z,6.10
2017-08-02T11:04:27.961Z,6.73
2017-08-02T11:06:54.806Z,5.90
2017-08-02T11:09:21.690Z,6.97
2017-08-02T11:11:48.544Z,6.40
2017-08-02T11:14:15.417Z,7.43
2017-08-02T11:16:42.266Z,6.77
2017-08-02T11:19:09.542Z,7.27
2017-08-02T11:21:36.386Z,5.90
2017-08-02T11:24:03.450Z,6.33
2017-08-02T11:26:30.334Z,5.90
2017-08-02T11:28:57.592Z,7.07
2017-08-02T11:31:24.860Z,5.50
2017-08-02T11:33:52.477Z,6.00
2017-08-02T11:36:19.376Z,7.00
2017-08-02T11:38:46.218Z,6.27
2017-08-02T11:41:13.061Z,6.30
2017-08-02T11:43:39.937Z,5.50
2017-08-02T11:46:06.794Z,6.20
2017-08-02T11:48:33.674Z,5.77
2017-08-02T11:51:00.525Z,6.07
2017-08-02T11:53:27.802Z,6.20
2017-08-02T11:55:54.653Z,6.13
2017-08-02T11:58:21.929Z,6.13
2017-08-02T12:00:48.773Z,6.13
2017-08-02T12:03:15.618Z,5.90
2017-08-02T12:05:42.498Z,5.90
2017-08-02T12:08:09.349Z,6.50
2017-08-02T12:10:36.226Z,5.90
2017-08-02T12:13:03.074Z,5.87
2017-08-02T12:15:30.378Z,5.40
2017-08-02T12:17:57.217Z,5.60
2017-08-02T12:20:24.118Z,5.70
2017-08-02T12:22:50.973Z,5.10
2017-08-02T12:25:17.830Z,5.47
2017-08-02T12:30:24.001Z,6.27
2017-08-02T12:32:50.878Z,4.83
2017-08-02T12:35:18.117Z,4.93
2017-08-02T12:37:44.998Z,5.50
2017-08-02T12:40:11.879Z,5.90
2017-08-02T12:42:38.733Z,6.87
2017-08-02T12:45:05.582Z,5.20
2017-08-02T12:47:32.442Z,5.03
2017-08-02T12:49:59.292Z,5.07
2017-08-02T12:52:26.143Z,6.10
2017-08-02T12:54:53.384Z,5.33
2017-08-02T12:59:58.702Z,5.70
2017-08-02T13:02:25.945Z,4.57
2017-08-02T13:04:54.305Z,5.87
2017-08-02T13:07:21.154Z,4.70
2017-08-02T13:09:48.401Z,4.40
2017-08-02T13:12:15.250Z,4.77
2017-08-02T13:14:42.107Z,5.20
2017-08-02T13:17:09.353Z,7.23
2017-08-02T13:19:37.339Z,6.23
2017-08-02T13:22:04.193Z,5.07
2017-08-02T13:24:31.046Z,5.80
2017-08-02T13:26:58.327Z,4.83
2017-08-02T13:29:25.176Z,5.20
2017-08-02T13:31:52.029Z,7.03
2017-08-02T13:34:18.869Z,5.60
2017-08-02T13:36:45.713Z,5.37
2017-08-02T13:39:12.610Z,4.97
2017-08-02T13:41:39.860Z,4.80
2017-08-02T13:44:06.708Z,5.70
2017-08-02T13:46:33.573Z,5.23
2017-08-02T13:49:00.831Z,5.03
2017-08-02T13:51:27.873Z,5.40
2017-08-02T13:53:55.497Z,5.57
2017-08-02T13:56:22.343Z,4.70
2017-08-02T13:58:49.189Z,4.80
2017-08-02T14:01:16.085Z,6.20
2017-08-02T14:03:42.949Z,5.67
2017-08-02T14:06:09.805Z,6.33
2017-08-02T14:08:37.055Z,4.20
2017-08-02T14:11:03.901Z,4.60
2017-08-02T14:13:30.789Z,5.40
2017-08-02T14:15:57.642Z,4.60
2017-08-02T14:18:25.625Z,5.67
2017-08-02T14:20:52.879Z,4.60
2017-08-02T14:23:20.163Z,4.83
2017-08-02T14:25:47.009Z,4.80
2017-08-02T14:28:15.362Z,4.50
2017-08-02T14:30:42.215Z,4.53
2017-08-02T14:33:09.069Z,4.10
2017-08-02T14:35:36.322Z,4.23
2017-08-02T14:38:03.421Z,5.17
2017-08-02T14:40:30.271Z,4.93
2017-08-02T14:42:57.118Z,5.07
2017-08-02T14:45:23.977Z,5.00
2017-08-02T14:47:51.224Z,4.30
2017-08-02T14:50:18.529Z,6.40
2017-08-02T14:52:45.372Z,4.23
2017-08-02T14:55:12.222Z,5.23
2017-08-02T14:57:39.836Z,5.77
2017-08-02T15:00:06.687Z,4.40
2017-08-02T15:02:33.929Z,4.77
2017-08-02T15:05:00.894Z,6.03
2017-08-02T15:07:28.510Z,3.90
2017-08-02T15:09:55.357Z,4.80
2017-08-02T15:12:22.253Z,5.13
2017-08-02T15:14:49.112Z,5.30
2017-08-02T15:17:16.362Z,5.10
2017-08-02T15:19:44.734Z,5.50
2017-08-02T15:22:11.586Z,4.53
2017-08-02T15:24:38.522Z,4.33
2017-08-02T15:29:43.966Z,4.50
2017-08-02T15:32:10.829Z,4.10
2017-08-02T15:34:38.841Z,5.10
2017-08-02T15:37:05.702Z,4.00
2017-08-02T15:39:32.589Z,4.90
2017-08-02T15:42:00.206Z,4.30
2017-08-02T15:44:27.485Z,6.27
2017-08-02T15:46:54.345Z,4.97
2017-08-02T15:49:21.597Z,4.43
2017-08-02T15:51:49.226Z,5.70
2017-08-02T15:54:16.083Z,4.27
2017-08-02T15:56:43.334Z,4.67
2017-08-02T15:59:10.177Z,4.13
2017-08-02T16:01:37.022Z,5.27
2017-08-02T16:04:03.898Z,4.33
2017-08-02T16:06:31.172Z,4.50
2017-08-02T16:08:58.022Z,4.40
2017-08-02T16:11:24.870Z,4.23
2017-08-02T16:13:51.714Z,4.47
2017-08-02T16:16:19.396Z,4.30
2017-08-02T16:18:46.255Z,5.00
2017-08-02T16:21:14.213Z,5.90
2017-08-02T16:23:41.086Z,5.47
2017-08-02T16:26:07.937Z,5.50
2017-08-02T16:28:35.178Z,5.47
2017-08-02T16:31:02.029Z,6.60
2017-08-02T16:33:28.922Z,5.93
2017-08-02T16:35:55.784Z,7.30
2017-08-02T16:38:22.637Z,6.37
2017-08-02T16:40:49.879Z,5.43
2017-08-02T16:43:16.730Z,5.87
2017-08-02T16:45:43.986Z,6.70
2017-08-02T16:48:11.225Z,4.90
2017-08-02T16:50:38.082Z,5.13
2017-08-02T16:53:04.958Z,5.80
2017-08-02T16:55:31.808Z,4.50
2017-08-02T16:57:58.652Z,4.70
2017-08-02T17:00:25.548Z,6.00
2017-08-02T17:02:52.411Z,4.37
2017-08-02T17:05:19.257Z,5.17
2017-08-02T17:07:46.125Z,4.30
2017-08-02T17:10:14.121Z,4.80
2017-08-02T17:12:41.385Z,4.90
2017-08-02T17:15:08.229Z,4.70
2017-08-02T17:17:35.081Z,5.20
2017-08-02T17:20:02.329Z,6.40
2017-08-02T17:22:29.583Z,4.73
2017-08-02T17:24:56.835Z,4.20
2017-08-02T17:30:02.860Z,5.73
2017-08-02T17:32:29.745Z,5.17
2017-08-02T17:34:56.588Z,5.43
2017-08-02T17:37:23.435Z,4.83
2017-08-02T17:39:50.286Z,5.00
2017-08-02T17:42:17.537Z,4.97
2017-08-02T17:44:44.802Z,5.10
2017-08-02T17:47:12.047Z,4.13
2017-08-02T17:49:39.310Z,4.70
2017-08-02T17:52:06.203Z,4.40
2017-08-02T17:54:33.082Z,5.50
2017-08-02T17:59:38.742Z,5.70
2017-08-02T18:02:05.590Z,4.83
2017-08-02T18:04:32.440Z,4.53
2017-08-02T18:06:59.429Z,5.30
2017-08-02T18:09:26.286Z,4.57
2017-08-02T18:11:53.658Z,4.47
2017-08-02T18:14:20.898Z,4.10
2017-08-02T18:16:47.774Z,4.80
2017-08-02T18:19:15.017Z,4.90
2017-08-02T18:21:41.928Z,6.17
2017-08-02T18:24:09.540Z,4.53
2017-08-02T18:26:36.390Z,5.20
2017-08-02T18:29:03.642Z,4.77
2017-08-02T18:31:30.881Z,4.20
2017-08-02T18:33:58.125Z,4.77
2017-08-02T18:36:24.989Z,4.67
2017-08-02T18:38:52.247Z,6.20
2017-08-02T18:41:19.709Z,5.47
2017-08-02T18:43:46.981Z,6.20
2017-08-02T18:46:14.824Z,4.70
2017-08-02T18:48:42.091Z,4.53
2017-08-02T18:51:08.945Z,5.80
2017-08-02T18:53:36.224Z,4.70
2017-08-02T18:56:03.478Z,4.80
2017-08-02T18:58:30.325Z,4.80
2017-08-02T19:00:57.172Z,4.80
2017-08-02T19:03:24.018Z,6.03
2017-08-02T19:05:50.865Z,5.00
2017-08-02T19:08:17.726Z,4.73
2017-08-02T19:10:59.121Z,4.70
2017-08-02T19:13:25.970Z,4.77
2017-08-02T19:15:52.858Z,5.07
2017-08-02T19:18:19.716Z,5.40
2017-08-02T19:20:46.599Z,4.20
2017-08-02T19:23:13.475Z,4.97
2017-08-02T19:25:40.761Z,7.20
2017-08-02T19:28:08.016Z,6.20
2017-08-02T19:30:35.634Z,4.83
2017-08-02T19:33:02.500Z,5.50
2017-08-02T19:35:29.762Z,4.70
2017-08-02T19:37:57.010Z,4.37
2017-08-02T19:40:24.262Z,5.43
2017-08-02T19:42:51.142Z,5.17
2017-08-02T19:45:18.758Z,5.80
2017-08-02T19:47:45.645Z,5.10
2017-08-02T19:50:12.903Z,7.13
2017-08-02T19:52:41.299Z,5.13
2017-08-02T19:55:08.151Z,4.40
2017-08-02T20:00:14.025Z,6.07
2017-08-02T20:02:40.885Z,4.70
2017-08-02T20:05:07.757Z,6.00
2017-08-02T20:07:34.610Z,4.77
2017-08-02T20:10:01.493Z,5.40
2017-08-02T20:12:28.347Z,4.33
2017-08-02T20:14:55.225Z,6.10
2017-08-02T20:17:22.470Z,6.43
2017-08-02T20:19:50.057Z,5.17
2017-08-02T20:22:17.672Z,4.90
2017-08-02T20:24:44.517Z,5.37
2017-08-02T20:29:50.633Z,4.67
2017-08-02T20:32:17.514Z,5.10
2017-08-02T20:34:44.766Z,5.00
2017-08-02T20:37:12.037Z,5.30
2017-08-02T20:39:38.885Z,4.33
2017-08-02T20:42:05.761Z,5.30
2017-08-02T20:44:32.605Z,6.63
2017-08-02T20:46:59.489Z,5.10
2017-08-02T20:49:26.350Z,6.13
2017-08-02T20:51:54.505Z,5.50
2017-08-02T20:54:21.358Z,6.73
2017-08-02T20:56:48.207Z,5.23
2017-08-02T20:59:15.861Z,5.47
2017-08-02T21:01:42.709Z,5.20
2017-08-02T21:04:09.595Z,5.00
2017-08-02T21:06:36.448Z,5.30
2017-08-02T21:09:03.321Z,5.60
2017-08-02T21:11:30.173Z,5.80
2017-08-02T21:13:57.465Z,6.17
2017-08-02T21:16:24.718Z,6.43
2017-08-02T21:18:51.971Z,5.90
2017-08-02T21:21:19.230Z,6.23
2017-08-02T21:23:46.472Z,5.13
2017-08-02T21:26:14.133Z,7.30
2017-08-02T21:28:41.377Z,7.40
2017-08-02T21:31:08.248Z,4.87
2017-08-02T21:33:35.489Z,4.70
2017-08-02T21:36:02.777Z,5.17
2017-08-02T21:38:30.100Z,4.87
2017-08-02T21:40:57.709Z,4.70
2017-08-02T21:43:24.562Z,5.27
2017-08-02T21:45:51.415Z,5.10
2017-08-02T21:48:18.302Z,5.00
2017-08-02T21:50:45.550Z,5.10
2017-08-02T21:53:12.443Z,5.53
2017-08-02T21:55:39.703Z,5.13
2017-08-02T21:58:08.188Z,6.40
2017-08-02T22:00:35.033Z,5.70
2017-08-02T22:03:01.929Z,5.30
2017-08-02T22:05:29.173Z,6.97
2017-08-02T22:07:56.030Z,6.40
2017-08-02T22:10:23.279Z,7.40
2017-08-02T22:12:50.538Z,6.77
2017-08-02T22:15:17.809Z,6.73
2017-08-02T22:17:44.671Z,4.90
2017-08-02T22:20:11.553Z,6.70
2017-08-02T22:22:38.403Z,6.47
2017-08-02T22:25:05.677Z,5.20
2017-08-02T22:32:44.288Z,5.80
2017-08-02T22:35:12.290Z,5.80
2017-08-02T22:37:39.137Z,5.53
2017-08-02T22:40:06.378Z,6.37
2017-08-02T22:42:33.266Z,5.77
2017-08-02T22:45:00.130Z,5.87
2017-08-02T22:47:27.008Z,4.90
2017-08-02T22:49:54.269Z,6.13
2017-08-02T22:52:21.145Z,5.03
2017-08-02T22:54:48.422Z,5.43
2017-08-02T22:59:56.182Z,5.47
2017-08-02T23:02:23.033Z,5.97
2017-08-02T23:04:49.910Z,7.10
2017-08-02T23:07:17.170Z,5.10
2017-08-02T23:09:44.058Z,6.20
2017-08-02T23:12:10.909Z,5.77
2017-08-02T23:14:37.770Z,5.73
2017-08-02T23:17:04.625Z,5.73
2017-08-02T23:19:31.898Z,6.97
2017-08-02T23:21:58.789Z,5.73
2017-08-02T23:24:26.074Z,7.27
2017-08-02T23:26:52.950Z,6.87
2017-08-02T23:29:20.202Z,6.90
2017-08-02T23:31:48.107Z,7.30
2017-08-02T23:34:14.957Z,7.23
2017-08-02T23:36:41.802Z,5.80
2017-08-02T23:39:08.665Z,6.13
2017-08-02T23:41:35.530Z,5.93
2017-08-02T23:44:02.440Z,7.27
2017-08-02T23:46:29.291Z,5.77
2017-08-02T23:48:56.169Z,7.80
2017-08-02T23:51:23.017Z,5.83
2017-08-02T23:53:50.289Z,6.17
2017-08-02T23:56:17.534Z,6.53
2017-08-02T23:58:45.194Z,6.03
